sensor_id;sensor_type;location;lat;lon;timestamp;P1;durP1;ratioP1;P2;durP2;ratioP2
20480;SDS011;10399;50.754;3.366;2023-11-21T00:01:18;20.25;;;9.00;;
20480;SDS011;10399;50.754;3.366;2023-11-21T00:03:46;20.13;;;8.77;;
20480;SDS011;10399;50.754;3.366;2023-11-21T00:06:13;25.45;;;8.80;;
20480;SDS011;10399;50.754;3.366;2023-11-21T00:08:41;15.98;;;7.53;;
20480;SDS011;10399;50.754;3.366;2023-11-21T00:11:07;18.98;;;8.23;;
20480;SDS011;10399;50.754;3.366;2023-11-21T00:13:35;20.17;;;7.72;;
20480;SDS011;10399;50.754;3.366;2023-11-21T00:16:02;17.77;;;8.50;;
20480;SDS011;10399;50.754;3.366;2023-11-21T00:18:30;20.55;;;7.75;;
20480;SDS011;10399;50.754;3.366;2023-11-21T00:20:57;15.48;;;7.57;;
20480;SDS011;10399;50.754;3.366;2023-11-21T00:23:25;16.73;;;6.97;;
20480;SDS011;10399;50.754;3.366;2023-11-21T00:25:52;22.85;;;8.05;;
20480;SDS011;10399;50.754;3.366;2023-11-21T00:28:19;16.05;;;7.88;;
20480;SDS011;10399;50.754;3.366;2023-11-21T00:30:47;21.83;;;8.15;;
20480;SDS011;10399;50.754;3.366;2023-11-21T00:33:15;21.48;;;8.02;;
20480;SDS011;10399;50.754;3.366;2023-11-21T00:35:42;20.00;;;7.95;;
20480;SDS011;10399;50.754;3.366;2023-11-21T00:38:09;21.40;;;8.68;;
20480;SDS011;10399;50.754;3.366;2023-11-21T00:40:37;20.42;;;8.50;;
20480;SDS011;10399;50.754;3.366;2023-11-21T00:43:04;24.40;;;8.45;;
20480;SDS011;10399;50.754;3.366;2023-11-21T00:45:32;21.85;;;8.73;;
20480;SDS011;10399;50.754;3.366;2023-11-21T00:47:59;21.30;;;9.10;;
20480;SDS011;10399;50.754;3.366;2023-11-21T00:50:26;24.13;;;8.98;;
20480;SDS011;10399;50.754;3.366;2023-11-21T00:52:53;22.73;;;9.27;;
20480;SDS011;10399;50.754;3.366;2023-11-21T00:55:20;20.52;;;8.85;;
20480;SDS011;10399;50.754;3.366;2023-11-21T00:57:48;19.08;;;9.18;;
20480;SDS011;10399;50.754;3.366;2023-11-21T01:00:15;23.13;;;9.55;;
20480;SDS011;10399;50.754;3.366;2023-11-21T01:02:46;29.70;;;9.02;;
20480;SDS011;10399;50.754;3.366;2023-11-21T01:05:15;19.83;;;9.50;;
20480;SDS011;10399;50.754;3.366;2023-11-21T01:07:42;24.83;;;10.00;;
20480;SDS011;10399;50.754;3.366;2023-11-21T01:10:10;26.25;;;10.23;;
20480;SDS011;10399;50.754;3.366;2023-11-21T01:12:37;24.05;;;10.27;;
20480;SDS011;10399;50.754;3.366;2023-11-21T01:15:05;27.25;;;10.90;;
20480;SDS011;10399;50.754;3.366;2023-11-21T01:17:34;27.90;;;11.20;;
20480;SDS011;10399;50.754;3.366;2023-11-21T01:20:02;22.40;;;10.30;;
20480;SDS011;10399;50.754;3.366;2023-11-21T01:22:37;26.05;;;11.60;;
20480;SDS011;10399;50.754;3.366;2023-11-21T01:25:05;26.60;;;11.18;;
20480;SDS011;10399;50.754;3.366;2023-11-21T01:27:34;26.35;;;10.98;;
20480;SDS011;10399;50.754;3.366;2023-11-21T01:30:02;26.65;;;10.82;;
20480;SDS011;10399;50.754;3.366;2023-11-21T01:32:29;23.92;;;11.35;;
20480;SDS011;10399;50.754;3.366;2023-11-21T01:34:57;24.83;;;11.10;;
20480;SDS011;10399;50.754;3.366;2023-11-21T01:37:24;27.95;;;11.25;;
20480;SDS011;10399;50.754;3.366;2023-11-21T01:39:54;25.77;;;10.90;;
20480;SDS011;10399;50.754;3.366;2023-11-21T01:42:22;22.55;;;11.27;;
20480;SDS011;10399;50.754;3.366;2023-11-21T01:44:49;22.15;;;11.02;;
20480;SDS011;10399;50.754;3.366;2023-11-21T01:47:16;26.35;;;10.68;;
20480;SDS011;10399;50.754;3.366;2023-11-21T01:49:44;24.48;;;11.05;;
20480;SDS011;10399;50.754;3.366;2023-11-21T01:52:12;19.27;;;10.75;;
20480;SDS011;10399;50.754;3.366;2023-11-21T01:54:41;25.83;;;10.27;;
20480;SDS011;10399;50.754;3.366;2023-11-21T01:57:08;29.90;;;10.02;;
20480;SDS011;10399;50.754;3.366;2023-11-21T01:59:36;24.70;;;10.90;;
20480;SDS011;10399;50.754;3.366;2023-11-21T02:02:05;29.40;;;11.18;;
20480;SDS011;10399;50.754;3.366;2023-11-21T02:04:33;22.02;;;10.35;;
20480;SDS011;10399;50.754;3.366;2023-11-21T02:07:01;21.23;;;10.15;;
20480;SDS011;10399;50.754;3.366;2023-11-21T02:09:28;26.08;;;11.10;;
20480;SDS011;10399;50.754;3.366;2023-11-21T02:12:04;22.80;;;10.95;;
20480;SDS011;10399;50.754;3.366;2023-11-21T02:14:32;23.95;;;10.52;;
20480;SDS011;10399;50.754;3.366;2023-11-21T02:16:59;20.67;;;10.52;;
20480;SDS011;10399;50.754;3.366;2023-11-21T02:19:27;25.83;;;10.90;;
20480;SDS011;10399;50.754;3.366;2023-11-21T02:21:57;26.15;;;11.35;;
20480;SDS011;10399;50.754;3.366;2023-11-21T02:24:27;29.67;;;12.38;;
20480;SDS011;10399;50.754;3.366;2023-11-21T02:26:54;22.95;;;11.48;;
20480;SDS011;10399;50.754;3.366;2023-11-21T02:29:22;23.98;;;11.00;;
20480;SDS011;10399;50.754;3.366;2023-11-21T02:31:54;31.58;;;11.77;;
20480;SDS011;10399;50.754;3.366;2023-11-21T02:34:22;29.80;;;11.48;;
20480;SDS011;10399;50.754;3.366;2023-11-21T02:36:52;17.65;;;10.85;;
20480;SDS011;10399;50.754;3.366;2023-11-21T02:39:20;28.00;;;11.98;;
20480;SDS011;10399;50.754;3.366;2023-11-21T02:41:51;23.02;;;11.52;;
20480;SDS011;10399;50.754;3.366;2023-11-21T02:44:18;24.63;;;12.35;;
20480;SDS011;10399;50.754;3.366;2023-11-21T02:46:45;26.27;;;11.18;;
20480;SDS011;10399;50.754;3.366;2023-11-21T02:49:13;26.73;;;11.13;;
20480;SDS011;10399;50.754;3.366;2023-11-21T02:51:41;25.02;;;11.27;;
20480;SDS011;10399;50.754;3.366;2023-11-21T02:54:08;27.48;;;11.73;;
20480;SDS011;10399;50.754;3.366;2023-11-21T02:56:35;25.02;;;12.35;;
20480;SDS011;10399;50.754;3.366;2023-11-21T02:59:02;30.38;;;13.07;;
20480;SDS011;10399;50.754;3.366;2023-11-21T03:01:30;27.55;;;12.98;;
20480;SDS011;10399;50.754;3.366;2023-11-21T03:03:57;28.67;;;12.38;;
20480;SDS011;10399;50.754;3.366;2023-11-21T03:06:25;29.42;;;13.60;;
20480;SDS011;10399;50.754;3.366;2023-11-21T03:08:51;29.00;;;13.10;;
20480;SDS011;10399;50.754;3.366;2023-11-21T03:11:20;31.02;;;12.95;;
20480;SDS011;10399;50.754;3.366;2023-11-21T03:13:47;28.23;;;11.77;;
20480;SDS011;10399;50.754;3.366;2023-11-21T03:16:15;29.35;;;13.93;;
20480;SDS011;10399;50.754;3.366;2023-11-21T03:18:43;24.02;;;12.85;;
20480;SDS011;10399;50.754;3.366;2023-11-21T03:21:11;30.60;;;12.95;;
20480;SDS011;10399;50.754;3.366;2023-11-21T03:23:39;25.17;;;12.48;;
20480;SDS011;10399;50.754;3.366;2023-11-21T03:26:06;26.83;;;12.73;;
20480;SDS011;10399;50.754;3.366;2023-11-21T03:28:40;29.10;;;12.70;;
20480;SDS011;10399;50.754;3.366;2023-11-21T03:31:07;28.30;;;13.23;;
20480;SDS011;10399;50.754;3.366;2023-11-21T03:33:37;28.67;;;12.50;;
20480;SDS011;10399;50.754;3.366;2023-11-21T03:36:04;22.65;;;11.70;;
20480;SDS011;10399;50.754;3.366;2023-11-21T03:38:34;23.65;;;12.32;;
20480;SDS011;10399;50.754;3.366;2023-11-21T03:41:01;20.05;;;12.02;;
20480;SDS011;10399;50.754;3.366;2023-11-21T03:43:28;29.70;;;13.13;;
20480;SDS011;10399;50.754;3.366;2023-11-21T03:45:55;29.25;;;13.10;;
20480;SDS011;10399;50.754;3.366;2023-11-21T03:48:22;23.95;;;12.82;;
20480;SDS011;10399;50.754;3.366;2023-11-21T03:50:49;29.65;;;13.30;;
20480;SDS011;10399;50.754;3.366;2023-11-21T03:53:17;32.63;;;13.77;;
20480;SDS011;10399;50.754;3.366;2023-11-21T03:55:44;28.30;;;12.95;;
20480;SDS011;10399;50.754;3.366;2023-11-21T03:58:11;31.75;;;14.20;;
20480;SDS011;10399;50.754;3.366;2023-11-21T04:00:38;34.45;;;14.70;;
20480;SDS011;10399;50.754;3.366;2023-11-21T04:03:06;36.55;;;13.75;;
20480;SDS011;10399;50.754;3.366;2023-11-21T04:05:33;29.42;;;15.05;;
20480;SDS011;10399;50.754;3.366;2023-11-21T04:08:01;30.63;;;14.20;;
20480;SDS011;10399;50.754;3.366;2023-11-21T04:10:27;30.80;;;14.63;;
20480;SDS011;10399;50.754;3.366;2023-11-21T04:12:55;25.33;;;14.75;;
20480;SDS011;10399;50.754;3.366;2023-11-21T04:15:22;24.05;;;15.30;;
20480;SDS011;10399;50.754;3.366;2023-11-21T04:17:49;31.90;;;15.88;;
20480;SDS011;10399;50.754;3.366;2023-11-21T04:20:16;28.98;;;16.02;;
20480;SDS011;10399;50.754;3.366;2023-11-21T04:22:44;28.10;;;15.63;;
20480;SDS011;10399;50.754;3.366;2023-11-21T04:25:12;32.35;;;16.90;;
20480;SDS011;10399;50.754;3.366;2023-11-21T04:27:41;30.83;;;16.40;;
20480;SDS011;10399;50.754;3.366;2023-11-21T04:30:10;36.10;;;18.02;;
20480;SDS011;10399;50.754;3.366;2023-11-21T04:32:38;33.92;;;18.70;;
20480;SDS011;10399;50.754;3.366;2023-11-21T04:35:06;34.72;;;17.98;;
20480;SDS011;10399;50.754;3.366;2023-11-21T04:37:35;34.45;;;18.83;;
20480;SDS011;10399;50.754;3.366;2023-11-21T04:40:02;38.88;;;19.95;;
20480;SDS011;10399;50.754;3.366;2023-11-21T04:42:36;34.80;;;20.08;;
20480;SDS011;10399;50.754;3.366;2023-11-21T04:45:04;39.55;;;19.70;;
20480;SDS011;10399;50.754;3.366;2023-11-21T04:47:35;39.78;;;20.67;;
20480;SDS011;10399;50.754;3.366;2023-11-21T04:50:03;45.70;;;22.05;;
20480;SDS011;10399;50.754;3.366;2023-11-21T04:52:32;39.30;;;20.30;;
20480;SDS011;10399;50.754;3.366;2023-11-21T04:54:59;47.97;;;22.98;;
20480;SDS011;10399;50.754;3.366;2023-11-21T04:57:28;46.72;;;24.60;;
20480;SDS011;10399;50.754;3.366;2023-11-21T04:59:55;45.60;;;24.60;;
20480;SDS011;10399;50.754;3.366;2023-11-21T05:02:22;51.60;;;26.05;;
20480;SDS011;10399;50.754;3.366;2023-11-21T05:05:04;52.85;;;27.05;;
20480;SDS011;10399;50.754;3.366;2023-11-21T05:07:33;40.63;;;22.33;;
20480;SDS011;10399;50.754;3.366;2023-11-21T05:10:03;39.00;;;21.73;;
20480;SDS011;10399;50.754;3.366;2023-11-21T05:12:34;39.20;;;20.90;;
20480;SDS011;10399;50.754;3.366;2023-11-21T05:15:03;50.42;;;23.17;;
20480;SDS011;10399;50.754;3.366;2023-11-21T05:17:38;34.50;;;19.13;;
20480;SDS011;10399;50.754;3.366;2023-11-21T05:20:10;40.80;;;20.05;;
20480;SDS011;10399;50.754;3.366;2023-11-21T05:22:39;37.85;;;18.65;;
20480;SDS011;10399;50.754;3.366;2023-11-21T05:25:07;30.15;;;18.67;;
20480;SDS011;10399;50.754;3.366;2023-11-21T05:27:35;33.85;;;19.23;;
20480;SDS011;10399;50.754;3.366;2023-11-21T05:30:02;30.40;;;18.35;;
20480;SDS011;10399;50.754;3.366;2023-11-21T05:32:32;30.75;;;17.17;;
20480;SDS011;10399;50.754;3.366;2023-11-21T05:35:00;31.70;;;17.52;;
20480;SDS011;10399;50.754;3.366;2023-11-21T05:37:27;31.13;;;17.55;;
20480;SDS011;10399;50.754;3.366;2023-11-21T05:39:55;27.98;;;18.00;;
20480;SDS011;10399;50.754;3.366;2023-11-21T05:42:26;30.73;;;18.15;;
20480;SDS011;10399;50.754;3.366;2023-11-21T05:44:53;31.98;;;18.00;;
20480;SDS011;10399;50.754;3.366;2023-11-21T05:47:20;28.95;;;18.58;;
20480;SDS011;10399;50.754;3.366;2023-11-21T05:49:48;26.58;;;16.60;;
20480;SDS011;10399;50.754;3.366;2023-11-21T05:52:17;30.88;;;17.63;;
20480;SDS011;10399;50.754;3.366;2023-11-21T05:54:45;27.30;;;17.15;;
20480;SDS011;10399;50.754;3.366;2023-11-21T05:57:12;33.63;;;17.77;;
20480;SDS011;10399;50.754;3.366;2023-11-21T05:59:39;30.25;;;16.35;;
20480;SDS011;10399;50.754;3.366;2023-11-21T06:02:07;26.27;;;16.38;;
20480;SDS011;10399;50.754;3.366;2023-11-21T06:04:34;26.52;;;16.20;;
20480;SDS011;10399;50.754;3.366;2023-11-21T06:07:03;29.42;;;17.85;;
20480;SDS011;10399;50.754;3.366;2023-11-21T06:09:30;26.40;;;17.75;;
20480;SDS011;10399;50.754;3.366;2023-11-21T06:11:58;31.50;;;17.08;;
20480;SDS011;10399;50.754;3.366;2023-11-21T06:14:26;26.70;;;16.15;;
20480;SDS011;10399;50.754;3.366;2023-11-21T06:16:53;25.60;;;16.35;;
20480;SDS011;10399;50.754;3.366;2023-11-21T06:19:23;25.90;;;16.17;;
20480;SDS011;10399;50.754;3.366;2023-11-21T06:21:50;26.05;;;15.48;;
20480;SDS011;10399;50.754;3.366;2023-11-21T06:24:17;22.35;;;14.45;;
20480;SDS011;10399;50.754;3.366;2023-11-21T06:26:47;24.38;;;14.55;;
20480;SDS011;10399;50.754;3.366;2023-11-21T06:29:14;22.23;;;14.50;;
20480;SDS011;10399;50.754;3.366;2023-11-21T06:31:43;24.48;;;14.27;;
20480;SDS011;10399;50.754;3.366;2023-11-21T06:34:10;25.20;;;15.73;;
20480;SDS011;10399;50.754;3.366;2023-11-21T06:36:37;23.73;;;15.20;;
20480;SDS011;10399;50.754;3.366;2023-11-21T06:39:04;26.33;;;15.13;;
20480;SDS011;10399;50.754;3.366;2023-11-21T06:41:34;25.83;;;15.43;;
20480;SDS011;10399;50.754;3.366;2023-11-21T06:44:05;27.73;;;16.83;;
20480;SDS011;10399;50.754;3.366;2023-11-21T06:46:32;30.23;;;16.83;;
20480;SDS011;10399;50.754;3.366;2023-11-21T06:48:59;28.13;;;16.17;;
20480;SDS011;10399;50.754;3.366;2023-11-21T06:51:27;28.17;;;16.20;;
20480;SDS011;10399;50.754;3.366;2023-11-21T06:53:54;28.33;;;16.50;;
20480;SDS011;10399;50.754;3.366;2023-11-21T06:56:20;37.15;;;22.13;;
20480;SDS011;10399;50.754;3.366;2023-11-21T06:58:48;32.30;;;18.40;;
20480;SDS011;10399;50.754;3.366;2023-11-21T07:01:15;39.58;;;18.58;;
20480;SDS011;10399;50.754;3.366;2023-11-21T07:03:42;32.85;;;18.80;;
20480;SDS011;10399;50.754;3.366;2023-11-21T07:06:10;31.33;;;18.98;;
20480;SDS011;10399;50.754;3.366;2023-11-21T07:08:37;32.97;;;18.10;;
20480;SDS011;10399;50.754;3.366;2023-11-21T07:11:05;35.22;;;19.48;;
20480;SDS011;10399;50.754;3.366;2023-11-21T07:13:32;33.28;;;18.83;;
20480;SDS011;10399;50.754;3.366;2023-11-21T07:15:59;37.35;;;19.17;;
20480;SDS011;10399;50.754;3.366;2023-11-21T07:18:26;37.78;;;19.08;;
20480;SDS011;10399;50.754;3.366;2023-11-21T07:20:54;35.90;;;18.77;;
20480;SDS011;10399;50.754;3.366;2023-11-21T07:23:20;35.70;;;17.80;;
20480;SDS011;10399;50.754;3.366;2023-11-21T07:25:48;44.45;;;18.92;;
20480;SDS011;10399;50.754;3.366;2023-11-21T07:28:16;42.58;;;19.10;;
20480;SDS011;10399;50.754;3.366;2023-11-21T07:30:43;37.90;;;18.35;;
20480;SDS011;10399;50.754;3.366;2023-11-21T07:33:10;41.70;;;19.05;;
20480;SDS011;10399;50.754;3.366;2023-11-21T07:35:37;37.92;;;19.35;;
20480;SDS011;10399;50.754;3.366;2023-11-21T07:38:04;40.28;;;19.90;;
20480;SDS011;10399;50.754;3.366;2023-11-21T07:40:31;39.95;;;19.35;;
20480;SDS011;10399;50.754;3.366;2023-11-21T07:42:58;38.92;;;19.98;;
20480;SDS011;10399;50.754;3.366;2023-11-21T07:45:25;48.53;;;20.90;;
20480;SDS011;10399;50.754;3.366;2023-11-21T07:47:54;39.13;;;19.75;;
20480;SDS011;10399;50.754;3.366;2023-11-21T07:50:22;41.80;;;20.63;;
20480;SDS011;10399;50.754;3.366;2023-11-21T07:52:49;39.85;;;19.90;;
20480;SDS011;10399;50.754;3.366;2023-11-21T07:55:16;39.63;;;20.15;;
20480;SDS011;10399;50.754;3.366;2023-11-21T07:57:44;40.97;;;18.45;;
20480;SDS011;10399;50.754;3.366;2023-11-21T08:00:11;35.38;;;16.73;;
20480;SDS011;10399;50.754;3.366;2023-11-21T08:02:39;32.83;;;16.17;;
20480;SDS011;10399;50.754;3.366;2023-11-21T08:05:09;29.00;;;15.68;;
20480;SDS011;10399;50.754;3.366;2023-11-21T08:07:50;30.73;;;15.80;;
20480;SDS011;10399;50.754;3.366;2023-11-21T08:10:17;28.27;;;15.00;;
20480;SDS011;10399;50.754;3.366;2023-11-21T08:12:44;30.30;;;15.30;;
20480;SDS011;10399;50.754;3.366;2023-11-21T08:15:14;30.90;;;14.57;;
20480;SDS011;10399;50.754;3.366;2023-11-21T08:17:41;29.42;;;14.73;;
20480;SDS011;10399;50.754;3.366;2023-11-21T08:20:08;29.02;;;14.52;;
20480;SDS011;10399;50.754;3.366;2023-11-21T08:22:37;26.98;;;13.65;;
20480;SDS011;10399;50.754;3.366;2023-11-21T08:25:07;29.17;;;13.63;;
20480;SDS011;10399;50.754;3.366;2023-11-21T08:27:34;28.95;;;13.93;;
20480;SDS011;10399;50.754;3.366;2023-11-21T08:30:04;30.88;;;13.68;;
20480;SDS011;10399;50.754;3.366;2023-11-21T08:32:33;26.80;;;12.20;;
20480;SDS011;10399;50.754;3.366;2023-11-21T08:35:00;21.00;;;12.00;;
20480;SDS011;10399;50.754;3.366;2023-11-21T08:37:28;23.50;;;11.77;;
20480;SDS011;10399;50.754;3.366;2023-11-21T08:39:57;22.02;;;11.77;;
20480;SDS011;10399;50.754;3.366;2023-11-21T08:42:28;25.42;;;12.40;;
20480;SDS011;10399;50.754;3.366;2023-11-21T08:44:56;23.83;;;12.02;;
20480;SDS011;10399;50.754;3.366;2023-11-21T08:47:27;23.25;;;12.40;;
20480;SDS011;10399;50.754;3.366;2023-11-21T08:49:54;21.10;;;12.05;;
20480;SDS011;10399;50.754;3.366;2023-11-21T08:52:21;23.17;;;11.73;;
20480;SDS011;10399;50.754;3.366;2023-11-21T08:54:49;22.98;;;11.32;;
20480;SDS011;10399;50.754;3.366;2023-11-21T08:57:22;20.35;;;11.43;;
20480;SDS011;10399;50.754;3.366;2023-11-21T08:59:50;22.42;;;11.02;;
20480;SDS011;10399;50.754;3.366;2023-11-21T09:02:22;22.42;;;11.93;;
20480;SDS011;10399;50.754;3.366;2023-11-21T09:04:50;20.25;;;11.43;;
20480;SDS011;10399;50.754;3.366;2023-11-21T09:07:19;22.65;;;12.40;;
20480;SDS011;10399;50.754;3.366;2023-11-21T09:09:47;27.02;;;12.00;;
20480;SDS011;10399;50.754;3.366;2023-11-21T09:12:15;23.88;;;12.50;;
20480;SDS011;10399;50.754;3.366;2023-11-21T09:14:43;22.27;;;11.98;;
20480;SDS011;10399;50.754;3.366;2023-11-21T09:17:10;20.08;;;11.73;;
20480;SDS011;10399;50.754;3.366;2023-11-21T09:19:38;23.05;;;12.77;;
20480;SDS011;10399;50.754;3.366;2023-11-21T09:22:05;19.52;;;10.93;;
20480;SDS011;10399;50.754;3.366;2023-11-21T09:24:33;19.30;;;11.10;;
20480;SDS011;10399;50.754;3.366;2023-11-21T09:27:03;18.30;;;9.55;;
20480;SDS011;10399;50.754;3.366;2023-11-21T09:29:31;25.45;;;11.15;;
20480;SDS011;10399;50.754;3.366;2023-11-21T09:31:58;16.02;;;9.45;;
20480;SDS011;10399;50.754;3.366;2023-11-21T09:34:25;15.05;;;8.52;;
20480;SDS011;10399;50.754;3.366;2023-11-21T09:36:53;14.07;;;8.90;;
20480;SDS011;10399;50.754;3.366;2023-11-21T09:39:20;15.60;;;8.68;;
20480;SDS011;10399;50.754;3.366;2023-11-21T09:41:51;16.33;;;8.48;;
20480;SDS011;10399;50.754;3.366;2023-11-21T09:44:27;14.90;;;7.70;;
20480;SDS011;10399;50.754;3.366;2023-11-21T09:47:01;14.90;;;8.10;;
20480;SDS011;10399;50.754;3.366;2023-11-21T09:49:29;13.63;;;7.75;;
20480;SDS011;10399;50.754;3.366;2023-11-21T09:52:00;10.38;;;7.65;;
20480;SDS011;10399;50.754;3.366;2023-11-21T09:54:30;11.70;;;6.72;;
20480;SDS011;10399;50.754;3.366;2023-11-21T09:56:59;12.80;;;6.47;;
20480;SDS011;10399;50.754;3.366;2023-11-21T09:59:27;14.55;;;6.45;;
20480;SDS011;10399;50.754;3.366;2023-11-21T10:02:02;9.13;;;6.13;;
20480;SDS011;10399;50.754;3.366;2023-11-21T10:04:30;9.93;;;5.47;;
20480;SDS011;10399;50.754;3.366;2023-11-21T10:06:58;8.55;;;5.07;;
20480;SDS011;10399;50.754;3.366;2023-11-21T10:09:25;10.25;;;5.13;;
20480;SDS011;10399;50.754;3.366;2023-11-21T10:11:53;8.23;;;4.75;;
20480;SDS011;10399;50.754;3.366;2023-11-21T10:14:23;7.65;;;4.18;;
20480;SDS011;10399;50.754;3.366;2023-11-21T10:16:52;9.20;;;3.80;;
20480;SDS011;10399;50.754;3.366;2023-11-21T10:19:20;7.13;;;3.33;;
20480;SDS011;10399;50.754;3.366;2023-11-21T10:21:50;7.72;;;3.38;;
20480;SDS011;10399;50.754;3.366;2023-11-21T10:24:18;12.23;;;3.50;;
20480;SDS011;10399;50.754;3.366;2023-11-21T10:26:45;8.07;;;3.50;;
20480;SDS011;10399;50.754;3.366;2023-11-21T10:29:19;7.53;;;2.58;;
20480;SDS011;10399;50.754;3.366;2023-11-21T10:31:49;8.73;;;2.92;;
20480;SDS011;10399;50.754;3.366;2023-11-21T10:34:18;4.47;;;2.63;;
20480;SDS011;10399;50.754;3.366;2023-11-21T10:36:47;8.60;;;3.22;;
20480;SDS011;10399;50.754;3.366;2023-11-21T10:39:21;10.82;;;3.33;;
20480;SDS011;10399;50.754;3.366;2023-11-21T10:41:50;8.55;;;3.42;;
20480;SDS011;10399;50.754;3.366;2023-11-21T10:44:17;8.65;;;3.85;;
20480;SDS011;10399;50.754;3.366;2023-11-21T10:46:51;11.38;;;4.60;;
20480;SDS011;10399;50.754;3.366;2023-11-21T10:49:23;8.15;;;3.97;;
20480;SDS011;10399;50.754;3.366;2023-11-21T10:51:52;12.23;;;4.22;;
20480;SDS011;10399;50.754;3.366;2023-11-21T10:54:20;8.77;;;4.38;;
20480;SDS011;10399;50.754;3.366;2023-11-21T10:56:50;11.13;;;4.80;;
20480;SDS011;10399;50.754;3.366;2023-11-21T10:59:29;10.38;;;4.82;;
20480;SDS011;10399;50.754;3.366;2023-11-21T11:01:58;9.63;;;5.30;;
20480;SDS011;10399;50.754;3.366;2023-11-21T11:04:27;11.73;;;5.65;;
20480;SDS011;10399;50.754;3.366;2023-11-21T11:06:57;11.52;;;5.35;;
20480;SDS011;10399;50.754;3.366;2023-11-21T11:09:28;12.55;;;5.35;;
20480;SDS011;10399;50.754;3.366;2023-11-21T11:11:57;12.15;;;5.40;;
20480;SDS011;10399;50.754;3.366;2023-11-21T11:14:24;10.50;;;5.63;;
20480;SDS011;10399;50.754;3.366;2023-11-21T11:16:53;9.45;;;5.05;;
20480;SDS011;10399;50.754;3.366;2023-11-21T11:19:25;9.82;;;4.72;;
20480;SDS011;10399;50.754;3.366;2023-11-21T11:27:48;10.75;;;4.60;;
20480;SDS011;10399;50.754;3.366;2023-11-21T11:36:06;8.70;;;5.00;;
20480;SDS011;10399;50.754;3.366;2023-11-21T11:38:44;9.82;;;4.63;;
20480;SDS011;10399;50.754;3.366;2023-11-21T11:41:12;10.32;;;4.20;;
20480;SDS011;10399;50.754;3.366;2023-11-21T11:43:39;10.05;;;4.18;;
20480;SDS011;10399;50.754;3.366;2023-11-21T11:46:11;9.75;;;4.10;;
20480;SDS011;10399;50.754;3.366;2023-11-21T11:48:41;10.73;;;4.00;;
20480;SDS011;10399;50.754;3.366;2023-11-21T11:51:14;6.28;;;3.85;;
20480;SDS011;10399;50.754;3.366;2023-11-21T11:53:45;9.73;;;3.97;;
20480;SDS011;10399;50.754;3.366;2023-11-21T11:56:25;12.35;;;3.90;;
20480;SDS011;10399;50.754;3.366;2023-11-21T11:58:58;11.20;;;4.28;;
20480;SDS011;10399;50.754;3.366;2023-11-21T12:01:31;10.70;;;3.63;;
20480;SDS011;10399;50.754;3.366;2023-11-21T12:06:46;6.35;;;3.58;;
20480;SDS011;10399;50.754;3.366;2023-11-21T12:09:19;9.00;;;3.80;;
20480;SDS011;10399;50.754;3.366;2023-11-21T12:11:51;12.90;;;4.22;;
20480;SDS011;10399;50.754;3.366;2023-11-21T12:14:19;10.13;;;3.90;;
20480;SDS011;10399;50.754;3.366;2023-11-21T12:16:46;8.90;;;3.33;;
20480;SDS011;10399;50.754;3.366;2023-11-21T12:19:14;8.30;;;3.78;;
20480;SDS011;10399;50.754;3.366;2023-11-21T12:21:41;11.10;;;3.47;;
20480;SDS011;10399;50.754;3.366;2023-11-21T12:24:10;13.35;;;3.47;;
20480;SDS011;10399;50.754;3.366;2023-11-21T12:26:41;14.20;;;3.38;;
20480;SDS011;10399;50.754;3.366;2023-11-21T12:29:10;8.90;;;3.20;;
20480;SDS011;10399;50.754;3.366;2023-11-21T12:31:38;14.73;;;3.50;;
20480;SDS011;10399;50.754;3.366;2023-11-21T12:34:07;10.88;;;3.40;;
20480;SDS011;10399;50.754;3.366;2023-11-21T12:36:37;13.55;;;3.53;;
20480;SDS011;10399;50.754;3.366;2023-11-21T12:39:05;14.40;;;3.05;;
20480;SDS011;10399;50.754;3.366;2023-11-21T12:41:32;11.32;;;2.83;;
20480;SDS011;10399;50.754;3.366;2023-11-21T12:44:00;10.25;;;2.50;;
20480;SDS011;10399;50.754;3.366;2023-11-21T12:46:27;9.85;;;2.70;;
20480;SDS011;10399;50.754;3.366;2023-11-21T12:49:00;11.35;;;3.20;;
20480;SDS011;10399;50.754;3.366;2023-11-21T12:51:27;10.00;;;2.20;;
20480;SDS011;10399;50.754;3.366;2023-11-21T12:53:55;11.27;;;3.08;;
20480;SDS011;10399;50.754;3.366;2023-11-21T12:56:22;10.07;;;2.38;;
20480;SDS011;10399;50.754;3.366;2023-11-21T12:58:50;20.35;;;3.50;;
20480;SDS011;10399;50.754;3.366;2023-11-21T13:01:20;7.82;;;2.83;;
20480;SDS011;10399;50.754;3.366;2023-11-21T13:03:53;11.27;;;3.00;;
20480;SDS011;10399;50.754;3.366;2023-11-21T13:06:21;15.93;;;2.90;;
20480;SDS011;10399;50.754;3.366;2023-11-21T13:08:51;14.75;;;2.83;;
20480;SDS011;10399;50.754;3.366;2023-11-21T13:11:18;11.75;;;2.85;;
20480;SDS011;10399;50.754;3.366;2023-11-21T13:13:46;18.60;;;3.17;;
20480;SDS011;10399;50.754;3.366;2023-11-21T13:16:13;30.25;;;4.30;;
20480;SDS011;10399;50.754;3.366;2023-11-21T13:18:41;19.90;;;3.10;;
20480;SDS011;10399;50.754;3.366;2023-11-21T13:21:09;22.23;;;3.00;;
20480;SDS011;10399;50.754;3.366;2023-11-21T13:23:40;16.45;;;3.60;;
20480;SDS011;10399;50.754;3.366;2023-11-21T13:26:09;22.00;;;3.60;;
20480;SDS011;10399;50.754;3.366;2023-11-21T13:28:36;39.45;;;4.82;;
20480;SDS011;10399;50.754;3.366;2023-11-21T13:31:05;12.30;;;2.95;;
20480;SDS011;10399;50.754;3.366;2023-11-21T13:33:49;14.80;;;3.22;;
20480;SDS011;10399;50.754;3.366;2023-11-21T13:36:22;11.75;;;2.25;;
20480;SDS011;10399;50.754;3.366;2023-11-21T13:38:50;8.93;;;2.30;;
20480;SDS011;10399;50.754;3.366;2023-11-21T13:41:20;8.10;;;1.92;;
20480;SDS011;10399;50.754;3.366;2023-11-21T13:43:54;7.95;;;1.92;;
20480;SDS011;10399;50.754;3.366;2023-11-21T13:46:30;8.07;;;1.75;;
20480;SDS011;10399;50.754;3.366;2023-11-21T13:49:04;8.73;;;2.00;;
20480;SDS011;10399;50.754;3.366;2023-11-21T13:51:36;7.32;;;2.35;;
20480;SDS011;10399;50.754;3.366;2023-11-21T13:54:14;9.45;;;2.08;;
20480;SDS011;10399;50.754;3.366;2023-11-21T13:56:45;6.35;;;2.20;;
20480;SDS011;10399;50.754;3.366;2023-11-21T13:59:17;8.60;;;3.00;;
20480;SDS011;10399;50.754;3.366;2023-11-21T14:01:48;10.48;;;2.13;;
20480;SDS011;10399;50.754;3.366;2023-11-21T14:04:43;4.75;;;2.38;;
20480;SDS011;10399;50.754;3.366;2023-11-21T14:07:27;7.88;;;1.70;;
20480;SDS011;10399;50.754;3.366;2023-11-21T14:10:03;8.02;;;2.03;;
20480;SDS011;10399;50.754;3.366;2023-11-21T14:12:39;4.00;;;1.98;;
20480;SDS011;10399;50.754;3.366;2023-11-21T14:15:09;4.28;;;1.40;;
20480;SDS011;10399;50.754;3.366;2023-11-21T14:17:38;8.13;;;2.10;;
20480;SDS011;10399;50.754;3.366;2023-11-21T14:20:08;7.47;;;2.72;;
20480;SDS011;10399;50.754;3.366;2023-11-21T14:22:43;5.53;;;2.88;;
20480;SDS011;10399;50.754;3.366;2023-11-21T14:25:10;7.00;;;3.92;;
20480;SDS011;10399;50.754;3.366;2023-11-21T14:27:38;8.20;;;3.35;;
20480;SDS011;10399;50.754;3.366;2023-11-21T14:30:05;15.43;;;4.93;;
20480;SDS011;10399;50.754;3.366;2023-11-21T14:32:33;8.88;;;3.47;;
20480;SDS011;10399;50.754;3.366;2023-11-21T14:35:01;9.05;;;3.70;;
20480;SDS011;10399;50.754;3.366;2023-11-21T14:37:30;16.15;;;4.85;;
20480;SDS011;10399;50.754;3.366;2023-11-21T14:40:11;14.88;;;6.80;;
20480;SDS011;10399;50.754;3.366;2023-11-21T14:42:38;10.52;;;6.32;;
20480;SDS011;10399;50.754;3.366;2023-11-21T14:45:06;12.88;;;6.13;;
20480;SDS011;10399;50.754;3.366;2023-11-21T14:47:34;12.57;;;7.05;;
20480;SDS011;10399;50.754;3.366;2023-11-21T14:50:01;14.02;;;8.88;;
20480;SDS011;10399;50.754;3.366;2023-11-21T14:52:49;12.63;;;6.15;;